Time;durP1;ratioP1;P1;durP2;ratioP2;P2;SDS_P1;SDS_P2;PMS_P1;PMS_P2;Temp;Humidity;BMP_temperature;BMP_pressure;BME280_temperature;BME280_humidity;BME280_pressure;Samples;Min_cycle;Max_cycle;Signal;HPM_P1;HPM_P2
2022/02/18 00:01:07;;;;;;;11.90;6.32;;;;;;;12.84;47.95;96691.03;5015160;28;20040;-84
2022/02/18 00:03:33;;;;;;;14.43;7.55;;;;;;;12.74;48.32;96695.47;5014505;28;20116;-84
2022/02/18 00:05:59;;;;;;;18.05;9.43;;;;;;;12.58;48.70;96698.59;5034141;28;20106;-84
2022/02/18 00:08:25;;;;;;;16.45;8.52;;;;;;;12.55;48.76;96712.25;5034489;28;20032;-84
2022/02/18 00:10:51;;;;;;;19.25;7.45;;;;;;;12.52;48.71;96703.66;5034049;28;20025;-83
2022/02/18 00:13:17;;;;;;;19.98;9.60;;;;;;;12.51;49.24;96721.56;5033902;28;20052;-84
2022/02/18 00:15:44;;;;;;;16.38;8.05;;;;;;;12.29;49.69;96737.72;5014484;28;20064;-86
2022/02/18 00:18:09;;;;;;;17.08;8.27;;;;;;;12.24;50.41;96747.97;5013656;28;20033;-83
2022/02/18 00:20:35;;;;;;;16.70;8.88;;;;;;;12.02;51.28;96759.56;5027144;28;20033;-83
2022/02/18 00:23:04;;;;;;;18.17;9.38;;;;;;;11.93;51.63;96779.06;4996565;28;20042;-84
2022/02/18 00:25:30;;;;;;;18.75;8.75;;;;;;;11.93;51.74;96793.28;5014572;28;20060;-83
2022/02/18 00:27:56;;;;;;;13.77;8.05;;;;;;;11.79;52.34;96788.19;4997999;28;20116;-84
2022/02/18 00:30:22;;;;;;;13.70;5.00;;;;;;;11.78;51.29;96778.44;5015088;28;20170;-84
2022/02/18 00:32:47;;;;;;;43.63;4.53;;;;;;;12.02;50.21;96798.91;5030462;28;20056;-84
2022/02/18 00:35:19;;;;;;;9.88;1.98;;;;;;;12.07;49.90;96794.91;5010903;28;20026;-84
2022/02/18 00:37:48;;;;;;;12.13;2.10;;;;;;;12.02;49.69;96799.78;4998529;28;20061;-85
2022/02/18 00:40:14;;;;;;;10.48;2.42;;;;;;;12.04;49.43;96810.38;5013829;28;20031;-85
2022/02/18 00:42:40;;;;;;;5.35;2.22;;;;;;;11.99;49.77;96820.59;5013769;28;20033;-84
2022/02/18 00:45:07;;;;;;;9.13;1.80;;;;;;;11.81;50.06;96801.47;5013190;28;20116;-84
2022/02/18 00:47:32;;;;;;;5.82;2.17;;;;;;;11.69;50.64;96810.44;5013750;28;20539;-84
2022/02/18 00:49:58;;;;;;;8.68;1.77;;;;;;;11.66;50.91;96824.91;5014480;28;20059;-84
2022/02/18 00:52:23;;;;;;;5.00;1.90;;;;;;;11.59;51.21;96825.53;5028987;28;20482;-84
2022/02/18 00:54:49;;;;;;;3.58;2.17;;;;;;;11.69;51.21;96845.28;5014331;28;20049;-82
2022/02/18 00:57:16;;;;;;;2.58;1.30;;;;;;;11.46;51.62;96839.00;5029957;28;20091;-82
2022/02/18 00:59:42;;;;;;;2.88;0.98;;;;;;;11.45;52.16;96850.69;4994134;28;20095;-83
2022/02/18 01:02:07;;;;;;;3.50;1.88;;;;;;;11.41;52.33;96852.72;4997174;28;20448;-83
2022/02/18 01:04:33;;;;;;;3.55;1.17;;;;;;;11.36;52.57;96870.97;5015354;28;20064;-83
2022/02/18 01:07:00;;;;;;;2.28;0.93;;;;;;;11.27;52.77;96858.28;4998328;28;20033;-83
2022/02/18 01:09:25;;;;;;;4.93;1.10;;;;;;;11.22;53.11;96884.56;5000637;28;20107;-84
2022/02/18 01:11:51;;;;;;;4.43;1.10;;;;;;;11.15;53.41;96886.00;5014376;28;20034;-84
2022/02/18 01:14:17;;;;;;;1.45;0.95;;;;;;;11.18;53.41;96877.72;5017751;28;20034;-85
2022/02/18 01:16:43;;;;;;;2.28;1.45;;;;;;;11.17;53.30;96876.00;5023057;28;20045;-83
2022/02/18 01:19:09;;;;;;;4.15;1.20;;;;;;;10.99;53.74;96872.03;5047261;28;20078;-84
2022/02/18 01:21:35;;;;;;;3.47;1.17;;;;;;;11.18;53.47;96887.56;5052181;28;20488;-84
2022/02/18 01:24:03;;;;;;;1.88;1.10;;;;;;;11.11;54.16;96878.28;5016114;28;20547;-84
2022/02/18 01:26:29;;;;;;;4.15;1.20;;;;;;;11.15;54.08;96877.97;5014713;28;20102;-84
2022/02/18 01:28:55;;;;;;;1.13;0.85;;;;;;;11.11;54.07;96880.97;5012432;28;20037;-82
2022/02/18 01:31:20;;;;;;;2.83;1.00;;;;;;;11.17;54.49;96896.56;5037108;28;20033;-84
2022/02/18 01:33:46;;;;;;;1.80;1.00;;;;;;;11.11;54.75;96886.31;5024872;28;20083;-83
2022/02/18 01:36:12;;;;;;;1.63;0.85;;;;;;;11.15;54.64;96896.69;5031062;28;20460;-84
2022/02/18 01:38:37;;;;;;;2.42;1.00;;;;;;;11.22;54.76;96902.44;5033277;28;20033;-85
2022/02/18 01:41:03;;;;;;;2.15;1.00;;;;;;;11.15;55.21;96896.69;5031824;28;20043;-83
2022/02/18 01:43:29;;;;;;;4.82;1.05;;;;;;;11.16;55.25;96900.22;5015514;28;20496;-84
2022/02/18 01:45:54;;;;;;;5.03;1.02;;;;;;;11.18;55.26;96917.88;5030422;28;20029;-84
2022/02/18 01:48:20;;;;;;;1.88;0.90;;;;;;;11.12;55.77;96922.84;5015466;28;20519;-84
2022/02/18 01:50:45;;;;;;;1.88;1.08;;;;;;;11.02;55.81;96908.41;5031918;28;20052;-84
2022/02/18 01:53:12;;;;;;;2.20;1.13;;;;;;;11.17;55.66;96936.72;5031813;28;20029;-85
2022/02/18 01:55:38;;;;;;;3.33;1.10;;;;;;;11.11;55.56;96927.31;5028157;28;20029;-84
2022/02/18 01:58:03;;;;;;;2.08;1.10;;;;;;;11.15;55.79;96935.97;5032033;28;20029;-85
2022/02/18 02:00:31;;;;;;;1.92;1.20;;;;;;;11.27;56.13;96946.63;5036584;28;20043;-85
2022/02/18 02:02:56;;;;;;;2.63;1.52;;;;;;;11.16;56.77;96965.34;5010386;28;20036;-85
2022/02/18 02:05:23;;;;;;;4.15;2.03;;;;;;;11.07;57.56;96966.00;5018850;28;20025;-86
2022/02/18 02:07:49;;;;;;;4.93;1.90;;;;;;;10.99;58.35;96960.34;5040797;28;20130;-85
2022/02/18 02:10:16;;;;;;;17.67;7.63;;;;;;;10.97;58.21;96980.16;5031352;28;20030;-85
2022/02/18 02:12:53;;;;;;;35.78;14.80;;;;;;;10.95;58.19;96982.94;5009146;28;20040;-85
2022/02/18 02:15:26;;;;;;;12.43;5.15;;;;;;;10.91;58.91;96985.94;5025057;28;20025;-84
2022/02/18 02:17:53;;;;;;;10.50;5.07;;;;;;;10.87;58.67;97001.38;5007725;28;20128;-84
2022/02/18 02:20:19;;;;;;;5.55;3.38;;;;;;;10.94;57.70;96996.44;5012449;28;20068;-84
2022/02/18 02:22:46;;;;;;;2.75;2.15;;;;;;;10.84;56.81;96991.75;5023426;28;20021;-85
2022/02/18 02:25:12;;;;;;;3.47;2.05;;;;;;;10.89;55.27;96996.75;5019976;28;20041;-85
2022/02/18 02:27:39;;;;;;;4.60;1.98;;;;;;;10.87;55.24;97009.41;5023373;28;20041;-85
2022/02/18 02:30:06;;;;;;;5.85;2.20;;;;;;;10.96;55.08;97023.91;5043330;28;20025;-86
2022/02/18 02:32:32;;;;;;;3.47;1.30;;;;;;;10.84;52.06;96993.56;5011524;28;20013;-85
2022/02/18 02:34:57;;;;;;;9.73;1.20;;;;;;;10.74;51.57;96995.16;5046074;28;20036;-85
2022/02/18 02:37:23;;;;;;;5.00;0.95;;;;;;;10.63;51.79;96997.78;5027469;28;20082;-86
2022/02/18 02:39:48;;;;;;;4.85;0.77;;;;;;;10.59;52.23;97021.19;5046788;28;20222;-85
2022/02/18 02:42:14;;;;;;;13.50;1.30;;;;;;;10.48;51.66;97028.28;5024467;28;20111;-85
2022/02/18 02:44:40;;;;;;;0.57;0.50;;;;;;;10.53;51.98;97040.34;5025438;28;20021;-86
2022/02/18 02:47:05;;;;;;;3.90;1.10;;;;;;;10.57;52.18;97043.66;5008684;28;20026;-86
2022/02/18 02:49:32;;;;;;;4.07;0.80;;;;;;;10.60;52.02;97059.50;5029435;28;20033;-85
2022/02/18 02:51:57;;;;;;;4.00;1.25;;;;;;;10.52;52.78;97077.91;5026796;28;20032;-83
2022/02/18 02:54:23;;;;;;;4.47;1.13;;;;;;;10.51;53.34;97106.47;5007476;28;20576;-84
2022/02/18 02:56:49;;;;;;;4.18;1.70;;;;;;;10.45;52.91;97089.97;5043563;28;20025;-84
2022/02/18 02:59:14;;;;;;;2.05;0.98;;;;;;;10.41;53.77;97094.66;5043640;28;20021;-85
2022/02/18 03:01:40;;;;;;;5.30;1.02;;;;;;;10.43;54.20;97113.28;5016094;28;20033;-85
2022/02/18 03:04:06;;;;;;;2.42;1.27;;;;;;;10.41;54.42;97118.72;5028803;28;20029;-85
2022/02/18 03:06:31;;;;;;;2.45;0.85;;;;;;;10.39;54.77;97107.31;5044809;28;20109;-84
2022/02/18 03:08:57;;;;;;;1.33;1.10;;;;;;;10.47;54.34;97112.97;5011289;28;20114;-85
2022/02/18 03:11:24;;;;;;;2.25;1.30;;;;;;;10.44;54.79;97115.00;5011284;28;20025;-85
2022/02/18 03:13:52;;;;;;;10.48;1.40;;;;;;;10.43;54.22;97110.63;5045978;28;20094;-85
2022/02/18 03:16:19;;;;;;;2.45;1.27;;;;;;;10.30;54.06;97122.13;5027530;28;20171;-84
2022/02/18 03:18:45;;;;;;;3.65;1.40;;;;;;;10.28;53.84;97132.06;5010475;28;20041;-84
2022/02/18 03:21:11;;;;;;;1.77;1.20;;;;;;;10.27;54.48;97141.03;5026847;28;20044;-84
2022/02/18 03:23:37;;;;;;;2.20;0.98;;;;;;;10.18;54.77;97130.13;5041902;28;20492;-83
2022/02/18 03:26:06;;;;;;;4.28;2.03;;;;;;;10.06;55.13;97138.94;5010525;28;20037;-84
2022/02/18 03:28:32;;;;;;;2.50;1.33;;;;;;;10.01;54.61;97147.25;5023301;28;20043;-84
2022/02/18 03:30:59;;;;;;;1.98;1.17;;;;;;;9.96;53.71;97149.38;5029634;28;20108;-84
2022/02/18 03:33:25;;;;;;;2.03;1.00;;;;;;;9.84;53.85;97130.63;5028079;28;20551;-86
2022/02/18 03:35:51;;;;;;;3.67;1.20;;;;;;;9.87;54.08;97120.59;5014006;28;20035;-85
2022/02/18 03:38:18;;;;;;;2.28;1.02;;;;;;;9.77;54.39;97116.81;5012803;28;20374;-85
2022/02/18 03:40:47;;;;;;;2.92;1.27;;;;;;;9.69;52.91;97105.78;5030154;28;20552;-85
2022/02/18 03:43:13;;;;;;;3.60;0.82;;;;;;;9.70;53.14;97100.31;5012806;28;20051;-85
2022/02/18 03:45:39;;;;;;;2.00;0.80;;;;;;;9.66;53.07;97105.97;5028660;28;20024;-85
2022/02/18 03:48:04;;;;;;;2.40;1.02;;;;;;;9.62;52.80;97104.47;5027889;28;20083;-85
2022/02/18 03:50:30;;;;;;;3.35;1.58;;;;;;;9.57;52.90;97102.06;5022498;28;20025;-84
2022/02/18 03:52:57;;;;;;;1.77;1.23;;;;;;;9.68;52.53;97112.94;5026669;28;20026;-85
2022/02/18 03:55:23;;;;;;;3.40;1.52;;;;;;;9.63;52.18;97103.47;5011109;28;20488;-82
2022/02/18 03:57:49;;;;;;;7.05;2.60;;;;;;;9.71;50.92;97094.03;5028493;28;20106;-84
2022/02/18 04:00:15;;;;;;;4.88;1.90;;;;;;;9.70;51.12;97107.47;5035516;28;20108;-83
2022/02/18 04:02:40;;;;;;;6.28;2.90;;;;;;;9.70;49.84;97112.81;5026360;28;20034;-85
2022/02/18 04:05:06;;;;;;;4.15;2.38;;;;;;;9.72;48.88;97092.22;5026319;28;20481;-84
2022/02/18 04:07:32;;;;;;;2.58;1.10;;;;;;;9.82;47.01;97080.81;5041207;28;20039;-84
2022/02/18 04:09:57;;;;;;;1.83;1.05;;;;;;;9.89;45.24;97049.22;5028984;28;20025;-84
2022/02/18 04:12:23;;;;;;;1.92;0.90;;;;;;;9.99;44.06;97036.97;5042115;28;20095;-84
2022/02/18 04:14:49;;;;;;;2.35;1.13;;;;;;;9.95;44.01;97043.47;5025216;28;20420;-85
2022/02/18 04:17:14;;;;;;;1.38;0.60;;;;;;;9.98;42.75;97059.28;5016750;28;20055;-85
2022/02/18 04:19:40;;;;;;;2.30;0.80;;;;;;;9.97;42.85;97057.56;5034554;28;20072;-85
2022/02/18 04:22:06;;;;;;;1.90;0.80;;;;;;;9.96;42.68;97050.53;5033969;28;20032;-85
2022/02/18 04:24:31;;;;;;;1.52;0.45;;;;;;;9.95;43.18;97067.50;5032113;28;20452;-85
2022/02/18 04:26:57;;;;;;;0.93;0.55;;;;;;;9.89;43.18;97054.56;5048041;28;20445;-85
2022/02/18 04:29:23;;;;;;;3.58;1.38;;;;;;;10.04;42.96;97082.06;5016895;28;20067;-85
2022/02/18 04:31:49;;;;;;;4.38;1.25;;;;;;;9.99;42.40;97089.53;5041541;28;20078;-85
2022/02/18 04:34:14;;;;;;;2.63;1.30;;;;;;;9.98;42.57;97096.69;5036767;28;20039;-85
2022/02/18 04:36:40;;;;;;;11.10;2.03;;;;;;;10.00;42.45;97100.09;5019511;28;20048;-86
2022/02/18 04:39:06;;;;;;;4.03;2.05;;;;;;;9.98;42.33;97104.69;5035379;28;20029;-76
2022/02/18 04:41:33;;;;;;;15.80;2.53;;;;;;;10.03;42.63;97099.06;5032157;28;20450;-85
2022/02/18 04:43:59;;;;;;;4.07;1.90;;;;;;;9.95;42.63;97094.22;5016498;28;20460;-85
2022/02/18 04:46:25;;;;;;;8.50;2.67;;;;;;;9.95;42.29;97083.53;5032345;28;20566;-84
2022/02/18 04:48:55;;;;;;;4.55;2.47;;;;;;;9.98;42.44;97102.03;5017871;28;20024;-83
2022/02/18 04:51:21;;;;;;;3.42;2.10;;;;;;;9.74;43.01;97071.63;5032397;28;20445;-84
2022/02/18 04:53:52;;;;;;;3.97;2.28;;;;;;;9.86;42.84;97104.66;5034070;28;20033;-85
2022/02/18 04:56:18;;;;;;;3.77;1.77;;;;;;;9.87;42.49;97104.56;5034202;28;20497;-84
2022/02/18 04:58:44;;;;;;;2.88;1.63;;;;;;;9.88;41.85;97111.59;5026152;28;20307;-84
2022/02/18 05:01:10;;;;;;;4.82;2.10;;;;;;;9.87;42.27;97120.59;5025096;28;20408;-83
2022/02/18 05:03:35;;;;;;;5.38;2.45;;;;;;;9.84;42.20;97128.81;5046799;28;20094;-84
2022/02/18 05:06:04;;;;;;;7.78;3.22;;;;;;;9.89;41.35;97133.84;5047846;28;20198;-84
2022/02/18 05:08:31;;;;;;;13.25;6.95;;;;;;;9.78;41.07;97114.03;5041835;28;20033;-85
2022/02/18 05:10:57;;;;;;;15.45;7.45;;;;;;;9.79;41.41;97123.75;5023402;28;20043;-84
2022/02/18 05:13:22;;;;;;;13.10;6.65;;;;;;;9.74;41.63;97131.22;5020355;28;20029;-84
2022/02/18 05:15:48;;;;;;;7.93;3.55;;;;;;;9.77;40.66;97135.50;5040583;28;20068;-83
2022/02/18 05:18:13;;;;;;;11.45;3.45;;;;;;;9.82;40.88;97144.06;5025365;28;20021;-82
2022/02/18 05:20:39;;;;;;;2.92;2.00;;;;;;;9.79;39.97;97149.59;5027409;28;20115;-81
2022/02/18 05:23:04;;;;;;;8.93;2.40;;;;;;;9.73;40.09;97155.34;5027399;28;20028;-83
2022/02/18 05:25:31;;;;;;;9.15;3.83;;;;;;;9.77;40.55;97165.75;5032866;28;20032;-82
2022/02/18 05:28:02;;;;;;;12.48;3.42;;;;;;;9.76;38.16;97161.34;5023553;28;20463;-81
2022/02/18 05:30:28;;;;;;;6.22;3.17;;;;;;;9.67;38.48;97156.59;5030374;28;20051;-81
2022/02/18 05:32:54;;;;;;;8.77;3.97;;;;;;;9.67;38.22;97161.09;5033723;28;20032;-82
2022/02/18 05:35:19;;;;;;;3.50;2.00;;;;;;;9.59;37.52;97160.75;5026293;28;20052;-82
2022/02/18 05:37:45;;;;;;;5.03;2.60;;;;;;;9.60;38.48;97159.75;5045774;28;20570;-82
2022/02/18 05:40:11;;;;;;;11.55;3.67;;;;;;;9.65;39.15;97187.03;5027163;28;20174;-82
2022/02/18 05:42:36;;;;;;;5.72;3.00;;;;;;;9.58;38.56;97181.22;5027361;28;20035;-81
2022/02/18 05:45:02;;;;;;;9.00;3.33;;;;;;;9.56;38.52;97168.94;5025989;28;20033;-82
2022/02/18 05:47:28;;;;;;;8.98;3.90;;;;;;;9.57;37.34;97173.31;5020183;28;20021;-82
2022/02/18 05:49:53;;;;;;;11.30;4.55;;;;;;;9.53;37.50;97163.81;5027484;28;20044;-82
2022/02/18 05:52:19;;;;;;;12.68;4.13;;;;;;;9.59;37.53;97185.63;5031258;28;20028;-83
2022/02/18 05:54:45;;;;;;;8.32;3.50;;;;;;;9.54;36.95;97193.06;5031241;28;20123;-83
2022/02/18 05:57:10;;;;;;;15.93;7.88;;;;;;;9.58;36.60;97202.59;5042916;28;20033;-83
2022/02/18 05:59:36;;;;;;;6.63;2.97;;;;;;;9.51;36.09;97198.59;5027671;28;20028;-81
2022/02/18 06:02:02;;;;;;;7.75;2.78;;;;;;;9.44;35.72;97196.41;5027229;28;20066;-81
2022/02/18 06:04:27;;;;;;;4.88;2.40;;;;;;;9.45;35.53;97192.78;5027484;28;20024;-81
2022/02/18 06:06:53;;;;;;;6.70;2.90;;;;;;;9.47;35.87;97202.44;5027538;28;20063;-82
2022/02/18 06:09:19;;;;;;;5.43;2.58;;;;;;;9.50;36.41;97215.59;5050829;28;20086;-82
2022/02/18 06:11:44;;;;;;;8.02;3.03;;;;;;;9.47;36.19;97217.59;5038934;28;20029;-83
2022/02/18 06:14:10;;;;;;;11.38;3.65;;;;;;;9.47;36.08;97220.25;5039408;28;20480;-82
2022/02/18 06:16:35;;;;;;;5.00;2.45;;;;;;;9.51;35.87;97229.75;5030735;28;20465;-82
2022/02/18 06:19:04;;;;;;;3.60;2.28;;;;;;;9.50;36.84;97222.72;5027614;28;20487;-82
2022/02/18 06:21:30;;;;;;;7.70;2.90;;;;;;;9.43;36.94;97221.38;5027688;28;20560;-81
2022/02/18 06:23:56;;;;;;;7.57;2.63;;;;;;;9.27;37.04;97205.47;5021004;28;20029;-82
2022/02/18 06:26:22;;;;;;;12.48;2.17;;;;;;;9.32;37.17;97219.38;5041844;28;20029;-81
2022/02/18 06:28:47;;;;;;;10.10;3.70;;;;;;;9.44;37.51;97241.81;5034987;28;20461;-81
2022/02/18 06:31:13;;;;;;;4.90;2.90;;;;;;;9.83;37.02;97241.94;5027465;28;20025;-79
2022/02/18 06:33:40;;;;;;;8.65;4.22;;;;;;;9.79;36.34;97235.06;5021162;28;20032;-82
2022/02/18 06:36:06;;;;;;;19.02;2.30;;;;;;;9.72;35.85;97231.94;5043824;28;20039;-82
2022/02/18 06:38:31;;;;;;;4.57;2.47;;;;;;;9.65;37.48;97235.09;5025607;28;20037;-83
2022/02/18 06:40:57;;;;;;;6.60;1.77;;;;;;;9.69;35.99;97223.28;5036935;28;20063;-83
2022/02/18 06:43:22;;;;;;;15.13;2.22;;;;;;;10.09;35.95;97248.31;5049101;28;20107;-82
2022/02/18 06:45:48;;;;;;;10.70;1.95;;;;;;;11.80;32.86;97223.13;5038433;28;20028;-83
2022/02/18 06:48:13;;;;;;;6.90;1.98;;;;;;;13.24;30.66;97210.41;5019216;28;20029;-83
2022/02/18 06:50:40;;;;;;;3.60;2.00;;;;;;;12.80;31.04;97210.25;5018907;28;20497;-83
2022/02/18 06:53:07;;;;;;;8.10;2.60;;;;;;;13.28;30.64;97228.00;5046412;28;20484;-82
2022/02/18 06:55:33;;;;;;;10.07;3.17;;;;;;;12.90;30.40;97220.19;5033014;28;20025;-82
2022/02/18 06:58:01;;;;;;;6.35;2.70;;;;;;;13.54;29.51;97215.19;5019947;28;20519;-83
2022/02/18 07:00:27;;;;;;;8.45;2.33;;;;;;;14.71;27.67;97205.59;5038653;28;20563;-82
2022/02/18 07:02:53;;;;;;;6.22;2.45;;;;;;;15.19;27.05;97209.53;5021094;28;20442;-82
2022/02/18 07:05:21;;;;;;;4.47;3.10;;;;;;;15.99;26.69;97212.41;5019943;28;20032;-86
2022/02/18 07:07:47;;;;;;;5.05;2.88;;;;;;;17.62;25.01;97190.91;5034364;28;20021;-82
2022/02/18 07:10:14;;;;;;;5.20;2.75;;;;;;;18.02;24.50;97204.13;5029563;28;20510;-82
2022/02/18 07:12:40;;;;;;;9.23;2.97;;;;;;;17.90;23.90;97189.09;5031493;28;20025;-83
2022/02/18 07:15:07;;;;;;;4.60;2.03;;;;;;;16.76;25.09;97181.03;5034503;28;20459;-82
2022/02/18 07:17:34;;;;;;;28.05;2.60;;;;;;;17.84;23.26;97169.72;5056671;28;20471;-83
2022/02/18 07:20:01;;;;;;;7.05;2.53;;;;;;;18.11;23.43;97165.31;5020902;28;20048;-82
2022/02/18 07:22:27;;;;;;;10.50;2.58;;;;;;;19.11;23.18;97160.59;5029949;28;20032;-82
2022/02/18 07:24:54;;;;;;;10.45;2.80;;;;;;;19.64;22.26;97147.78;5046813;28;20497;-83
2022/02/18 07:27:20;;;;;;;3.05;1.80;;;;;;;19.73;21.44;97152.25;5026564;28;20025;-82
2022/02/18 07:29:46;;;;;;;7.80;2.45;;;;;;;20.37;21.78;97167.16;5025294;28;20035;-83
2022/02/18 07:32:13;;;;;;;7.57;3.10;;;;;;;20.89;21.11;97160.47;5018726;28;20032;-83
2022/02/18 07:34:39;;;;;;;8.30;3.35;;;;;;;21.72;20.65;97161.13;5023961;28;20119;-82
2022/02/18 07:37:05;;;;;;;13.82;2.63;;;;;;;21.81;19.54;97146.47;5021260;28;20119;-82
2022/02/18 07:39:30;;;;;;;8.68;1.60;;;;;;;21.04;19.97;97161.50;5033299;28;20059;-84
2022/02/18 07:41:56;;;;;;;8.00;1.75;;;;;;;20.61;20.24;97148.19;5033557;28;20036;-84
2022/02/18 07:44:22;;;;;;;7.63;2.38;;;;;;;20.98;20.76;97170.31;5042503;28;20107;-82
2022/02/18 07:46:48;;;;;;;5.82;2.80;;;;;;;21.06;20.39;97173.06;5018735;28;20035;-83
2022/02/18 07:49:14;;;;;;;6.32;2.50;;;;;;;21.21;20.03;97166.97;5045419;28;20029;-83
2022/02/18 07:51:40;;;;;;;5.20;2.25;;;;;;;18.75;21.96;97166.06;5028581;28;20029;-82
2022/02/18 07:54:06;;;;;;;10.52;2.67;;;;;;;20.40;21.18;97162.25;5025990;28;20466;-82
2022/02/18 07:56:32;;;;;;;3.67;1.83;;;;;;;20.77;20.28;97164.53;5034216;28;20032;-82
2022/02/18 07:58:57;;;;;;;3.72;1.90;;;;;;;20.92;19.86;97159.28;5021009;28;20477;-82
2022/02/18 08:01:23;;;;;;;7.57;2.33;;;;;;;20.59;19.93;97149.38;5019925;28;20031;-82
2022/02/18 08:03:51;;;;;;;7.75;2.05;;;;;;;20.16;19.78;97147.69;5037021;28;20020;-82
2022/02/18 08:06:17;;;;;;;3.45;2.40;;;;;;;21.37;19.49;97135.19;5050878;28;20024;-82
2022/02/18 08:08:42;;;;;;;4.72;1.65;;;;;;;20.95;19.48;97139.91;5036973;28;20025;-82
2022/02/18 08:11:09;;;;;;;4.00;1.70;;;;;;;19.79;20.00;97143.47;5070375;28;20017;-81
2022/02/18 08:13:35;;;;;;;4.75;1.80;;;;;;;19.25;19.94;97146.50;5025289;28;20040;-83
2022/02/18 08:16:00;;;;;;;7.90;1.67;;;;;;;20.63;19.61;97148.88;5028014;28;20041;-82
2022/02/18 08:18:26;;;;;;;3.70;1.40;;;;;;;20.21;19.52;97139.91;5033872;28;20445;-82
2022/02/18 08:20:52;;;;;;;5.60;2.08;;;;;;;22.01;18.95;97147.81;5013661;28;20616;-81
2022/02/18 08:23:18;;;;;;;5.40;1.88;;;;;;;22.88;17.92;97152.16;5018664;28;20055;-83
2022/02/18 08:25:43;;;;;;;10.60;1.45;;;;;;;22.63;17.58;97134.22;5033728;28;20024;-82
2022/02/18 08:28:09;;;;;;;3.85;1.20;;;;;;;21.23;18.33;97140.44;5039716;28;20047;-80
2022/02/18 08:30:35;;;;;;;4.85;2.25;;;;;;;20.50;18.47;97143.06;5039069;28;20033;-81
2022/02/18 08:33:00;;;;;;;4.50;1.13;;;;;;;21.28;18.01;97147.09;4996926;28;20021;-82
2022/02/18 08:35:27;;;;;;;3.25;1.52;;;;;;;21.47;17.66;97148.59;5030216;28;20104;-82
2022/02/18 08:37:54;;;;;;;1.75;1.25;;;;;;;21.08;18.06;97141.13;5027549;28;20041;-82
2022/02/18 08:40:20;;;;;;;3.63;1.27;;;;;;;21.23;18.72;97144.00;4997026;28;20064;-81
2022/02/18 08:42:46;;;;;;;5.63;1.85;;;;;;;22.71;17.74;97144.25;5013130;28;20061;-82
2022/02/18 08:45:12;;;;;;;4.72;1.90;;;;;;;22.28;17.41;97156.53;5013053;28;20543;-81
2022/02/18 08:47:38;;;;;;;2.92;1.77;;;;;;;22.57;17.77;97152.16;5029289;28;20025;-81
2022/02/18 08:50:06;;;;;;;3.22;1.40;;;;;;;22.16;17.45;97145.19;5003443;28;20450;-82
2022/02/18 08:52:32;;;;;;;3.47;1.60;;;;;;;22.14;17.64;97144.53;5029258;28;20179;-81
2022/02/18 08:54:57;;;;;;;5.97;1.40;;;;;;;22.03;17.53;97140.28;5007545;28;20116;-81
2022/02/18 08:57:23;;;;;;;3.03;1.40;;;;;;;22.61;17.22;97163.56;5018133;28;20405;-82
2022/02/18 08:59:49;;;;;;;6.90;1.40;;;;;;;22.35;17.39;97157.53;5004905;28;20436;-82
2022/02/18 09:02:14;;;;;;;7.75;1.65;;;;;;;23.48;16.81;97144.00;4996476;28;20033;-80
2022/02/18 09:04:40;;;;;;;3.78;1.05;;;;;;;21.29;17.66;97153.34;5028180;28;20404;-81
2022/02/18 09:07:05;;;;;;;4.38;2.35;;;;;;;21.98;17.82;97166.38;5032489;28;20029;-82
2022/02/18 09:09:32;;;;;;;7.00;1.80;;;;;;;21.95;17.92;97156.69;5028475;28;20109;-82
2022/02/18 09:11:57;;;;;;;4.95;1.90;;;;;;;22.42;17.74;97166.72;5019886;28;20055;-83
2022/02/18 09:14:23;;;;;;;7.85;1.85;;;;;;;22.25;17.39;97163.19;5048150;28;20037;-82
2022/02/18 09:16:48;;;;;;;4.97;1.80;;;;;;;22.37;17.50;97159.06;5037963;28;20064;-82
2022/02/18 09:19:15;;;;;;;3.28;1.98;;;;;;;22.95;16.83;97160.47;5005602;28;20033;-82
2022/02/18 09:21:40;;;;;;;4.18;1.98;;;;;;;22.83;17.70;97151.81;5045200;28;20119;-80
2022/02/18 09:24:06;;;;;;;7.13;2.60;;;;;;;21.73;17.64;97168.28;5031999;28;20112;-83
2022/02/18 09:26:32;;;;;;;5.20;1.95;;;;;;;22.43;17.51;97161.06;5015701;28;20025;-81
2022/02/18 09:28:57;;;;;;;9.70;2.25;;;;;;;22.06;18.01;97161.75;5037774;28;20416;-80
2022/02/18 09:31:24;;;;;;;7.32;2.25;;;;;;;22.09;17.62;97175.00;5005549;28;20121;-81
2022/02/18 09:33:50;;;;;;;6.15;2.30;;;;;;;22.14;17.85;97166.31;5046143;28;20033;-81
2022/02/18 09:36:16;;;;;;;3.42;2.38;;;;;;;21.10;18.86;97160.03;5069653;28;20044;-80
2022/02/18 09:38:42;;;;;;;4.40;2.25;;;;;;;21.51;17.99;97156.22;5051378;28;20029;-82
2022/02/18 09:41:08;;;;;;;10.27;1.70;;;;;;;21.37;18.11;97164.25;5038249;28;20034;-81
2022/02/18 09:43:36;;;;;;;9.18;3.35;;;;;;;23.23;16.75;97169.78;5018910;28;20164;-81
2022/02/18 09:46:03;;;;;;;2.30;1.40;;;;;;;24.00;16.42;97165.81;5024935;28;20383;-81
2022/02/18 09:48:29;;;;;;;3.58;1.90;;;;;;;23.20;16.40;97165.53;5022259;28;20473;-82
2022/02/18 09:50:56;;;;;;;9.57;3.38;;;;;;;23.48;17.24;97184.09;5029066;28;20025;-82
2022/02/18 09:53:21;;;;;;;12.35;3.80;;;;;;;23.69;18.19;97195.16;5028361;28;20021;-82
2022/02/18 09:55:48;;;;;;;8.85;2.70;;;;;;;23.68;17.78;97190.75;5031970;28;20052;-82
2022/02/18 09:58:22;;;;;;;7.55;3.33;;;;;;;23.01;18.30;97171.47;5056804;28;20029;-81
2022/02/18 10:00:48;;;;;;;8.82;3.55;;;;;;;23.32;18.75;97197.88;5032873;28;20029;-81
2022/02/18 10:03:14;;;;;;;9.88;3.92;;;;;;;23.87;18.20;97184.72;5037908;28;20063;-82
2022/02/18 10:05:40;;;;;;;4.85;2.33;;;;;;;24.23;17.94;97169.34;5051023;28;20060;-83
2022/02/18 10:08:18;;;;;;;9.18;3.08;;;;;;;24.97;18.17;97183.75;5026358;28;20504;-83
2022/02/18 10:10:57;;;;;;;8.80;3.70;;;;;;;24.43;18.81;97185.16;5029679;28;20017;-83
2022/02/18 10:13:38;;;;;;;11.55;4.13;;;;;;;24.81;18.36;97178.53;5045641;28;20020;-82
2022/02/18 10:16:05;;;;;;;12.40;4.90;;;;;;;25.35;18.01;97170.66;5023509;28;20558;-82
2022/02/18 10:18:50;;;;;;;7.57;2.95;;;;;;;24.11;18.86;97179.06;5010090;28;20026;-81
2022/02/18 10:21:35;;;;;;;6.22;2.80;;;;;;;24.00;18.89;97174.00;5027739;28;20033;-82
2022/02/18 10:24:16;;;;;;;18.20;5.65;;;;;;;24.77;18.83;97177.16;5017969;28;20033;-81
2022/02/18 10:26:47;;;;;;;6.25;2.63;;;;;;;24.55;18.48;97178.19;5026846;28;20040;-81
2022/02/18 10:29:23;;;;;;;4.90;2.50;;;;;;;23.65;18.86;97181.06;5029366;28;20377;-81
2022/02/18 10:32:14;;;;;;;18.10;3.30;;;;;;;23.67;18.20;97189.03;5023363;28;20442;-82
2022/02/18 10:34:54;;;;;;;3.78;2.22;;;;;;;24.49;17.64;97184.38;5033944;28;20109;-81
2022/02/18 10:37:24;;;;;;;6.65;2.50;;;;;;;23.40;18.47;97190.50;5042839;28;20527;-81
2022/02/18 10:39:51;;;;;;;16.40;3.05;;;;;;;23.10;19.68;97175.84;5017881;28;20270;-82
2022/02/18 10:42:17;;;;;;;11.63;3.72;;;;;;;24.01;19.62;97192.13;5036073;28;20401;-82
2022/02/18 10:44:43;;;;;;;16.58;3.20;;;;;;;24.39;18.61;97178.38;5064638;28;20028;-82
2022/02/18 10:47:21;;;;;;;12.13;1.98;;;;;;;22.65;19.77;97197.63;5048291;28;20375;-82
2022/02/18 10:49:47;;;;;;;10.35;2.50;;;;;;;23.62;19.22;97197.81;5030946;28;20084;-82
2022/02/18 10:52:19;;;;;;;6.78;1.40;;;;;;;23.59;19.37;97197.34;5023099;28;20515;-81
2022/02/18 10:54:47;;;;;;;3.75;2.05;;;;;;;24.70;19.05;97192.69;5004048;28;20022;-81
2022/02/18 10:57:24;;;;;;;3.58;1.80;;;;;;;25.21;18.02;97196.22;4998762;28;20025;-82
2022/02/18 10:59:51;;;;;;;5.75;2.25;;;;;;;25.30;18.22;97201.38;5022893;28;20020;-82
2022/02/18 11:02:46;;;;;;;5.57;2.30;;;;;;;24.97;18.26;97196.59;5017574;28;20034;-82
2022/02/18 11:05:21;;;;;;;8.52;2.90;;;;;;;23.30;20.20;97206.22;5022966;28;20504;-82
2022/02/18 11:07:47;;;;;;;5.78;2.50;;;;;;;24.22;19.42;97188.66;5045382;28;20057;-82
2022/02/18 11:10:33;;;;;;;7.57;2.63;;;;;;;23.67;19.35;97189.03;5034236;28;20068;-82
2022/02/18 11:12:59;;;;;;;5.93;2.95;;;;;;;24.14;19.84;97189.63;5045143;28;20462;-83
2022/02/18 11:15:26;;;;;;;7.95;2.72;;;;;;;24.96;19.16;97200.38;5029161;28;20116;-83
2022/02/18 11:17:52;;;;;;;9.35;2.38;;;;;;;24.62;18.99;97185.41;5015865;28;20049;-84
2022/02/18 11:20:18;;;;;;;7.97;3.00;;;;;;;24.74;18.92;97208.50;5014747;28;20033;-83
2022/02/18 11:22:44;;;;;;;9.80;5.25;;;;;;;24.79;19.29;97202.47;5037143;28;20083;-84
2022/02/18 11:25:11;;;;;;;8.63;2.47;;;;;;;24.95;19.50;97206.91;5026383;28;20025;-83
2022/02/18 11:27:38;;;;;;;6.75;2.83;;;;;;;25.30;18.74;97198.63;5018726;28;20036;-83
2022/02/18 11:30:05;;;;;;;12.90;2.75;;;;;;;25.31;19.08;97192.13;5014971;28;20033;-84
2022/02/18 11:32:37;;;;;;;10.63;2.95;;;;;;;25.90;18.56;97204.69;5033968;28;20025;-82